Time;durP1;ratioP1;P1;durP2;ratioP2;P2;SDS_P1;SDS_P2;PMS_P1;PMS_P2;Temp;Humidity;BMP_temperature;BMP_pressure;BME280_temperature;BME280_humidity;BME280_pressure;Samples;Min_cycle;Max_cycle;Signal;HPM_P1;HPM_P2
2022/07/01 00:00:20;;;;;;;1000.78;934.63;;;;;;;26.61;53.15;100693.78;695295;28;24164;-67
2022/07/01 00:00:41;;;;;;;997.08;930.97;;;;;;;26.62;53.32;100689.06;690138;28;137751;-67
2022/07/01 00:01:04;;;;;;;1005.47;939.15;;;;;;;26.61;53.73;100696.56;695733;28;1385;-67
2022/07/01 00:01:25;;;;;;;1005.58;939.28;;;;;;;26.60;53.57;100688.53;693497;28;44141;-68
2022/07/01 00:01:47;;;;;;;1018.42;951.63;;;;;;;26.57;53.67;100689.94;695079;28;22485;-67
2022/07/01 00:02:09;;;;;;;1002.40;936.22;;;;;;;26.58;53.12;100697.13;693504;28;47688;-67
2022/07/01 00:02:30;;;;;;;1003.33;937.17;;;;;;;26.56;53.51;100687.44;693307;28;45376;-67
2022/07/01 00:02:52;;;;;;;1013.97;947.35;;;;;;;26.56;53.51;100692.97;694643;28;21572;-67
2022/07/01 00:03:16;;;;;;;1017.50;950.72;;;;;;;26.58;53.83;100693.50;693000;28;44345;-68
2022/07/01 00:03:37;;;;;;;1024.30;957.30;;;;;;;26.61;53.21;100699.34;691937;28;89688;-68
2022/07/01 00:03:59;;;;;;;1016.03;949.42;;;;;;;26.62;53.61;100694.63;694104;28;22372;-68
2022/07/01 00:04:20;;;;;;;1021.35;954.55;;;;;;;26.61;53.72;100692.94;694112;28;22394;-68
2022/07/01 00:04:42;;;;;;;1032.50;965.30;;;;;;;26.60;53.72;100686.59;694222;28;23484;-66
2022/07/01 00:05:27;;;;;;;1019.40;952.65;;;;;;;26.61;53.66;100690.19;690150;28;137322;-67
2022/07/01 00:05:50;;;;;;;1012.15;945.60;;;;;;;26.58;53.68;100685.22;690659;28;136338;-66
2022/07/01 00:06:11;;;;;;;997.40;931.50;;;;;;;26.59;53.71;100690.47;693479;28;46323;-66
2022/07/01 00:06:34;;;;;;;973.70;908.67;;;;;;;26.55;53.21;100683.84;692670;28;22386;-67
2022/07/01 00:06:56;;;;;;;989.95;924.25;;;;;;;26.55;53.67;100685.78;692565;28;69228;-67
2022/07/01 00:07:31;;;;;;;1012.72;946.13;;;;;;;26.60;53.65;100688.53;693065;28;46354;-66
2022/07/01 00:07:54;;;;;;;1008.78;942.58;;;;;;;26.58;53.33;100685.22;689850;28;158916;-66
2022/07/01 00:08:16;;;;;;;1017.65;950.95;;;;;;;26.58;53.82;100688.81;691652;28;69476;-66
2022/07/01 00:08:40;;;;;;;1013.70;947.15;;;;;;;26.59;53.33;100686.88;692768;28;45263;-66
2022/07/01 00:09:04;;;;;;;1019.25;952.55;;;;;;;26.58;53.40;100691.59;691695;28;93299;-66
2022/07/01 00:09:29;;;;;;;1009.78;943.45;;;;;;;26.56;53.21;100691.03;692145;28;91977;-67
2022/07/01 00:09:50;;;;;;;1017.40;950.70;;;;;;;26.59;53.82;100686.88;691306;28;114373;-67
2022/07/01 00:10:12;;;;;;;1015.70;949.17;;;;;;;26.58;53.60;100683.28;695686;28;22410;-67
2022/07/01 00:10:35;;;;;;;1013.47;947.03;;;;;;;26.57;53.88;100687.16;696119;28;46295;-67
2022/07/01 00:10:57;;;;;;;1011.88;945.47;;;;;;;26.59;53.40;100690.47;696281;28;67503;-67
2022/07/01 00:11:18;;;;;;;1021.00;954.22;;;;;;;26.59;53.33;100692.41;695196;28;46386;-67
2022/07/01 00:11:40;;;;;;;1022.92;956.10;;;;;;;26.57;53.46;100689.94;691784;28;44428;-67
2022/07/01 00:12:01;;;;;;;1017.05;950.45;;;;;;;26.56;53.88;100688.25;693267;28;22459;-66
2022/07/01 00:12:22;;;;;;;1018.03;951.40;;;;;;;26.52;53.42;100691.88;692353;28;1066;-67
2022/07/01 00:12:45;;;;;;;1014.38;947.72;;;;;;;26.53;53.79;100688.84;691145;28;44374;-67
2022/07/01 00:13:06;;;;;;;1010.72;944.33;;;;;;;26.51;53.98;100682.75;690406;28;46163;-67
2022/07/01 00:13:27;;;;;;;1015.28;948.70;;;;;;;26.55;53.80;100692.16;691111;28;23454;-67
2022/07/01 00:13:48;;;;;;;1011.65;945.20;;;;;;;26.56;53.64;100692.97;692328;28;22482;-66
2022/07/01 00:14:11;;;;;;;1018.28;951.67;;;;;;;26.49;53.67;100676.69;690711;28;45054;-66
2022/07/01 00:14:32;;;;;;;1018.35;951.65;;;;;;;26.51;53.78;100693.84;690561;28;44721;-66
2022/07/01 00:14:53;;;;;;;1015.53;949.03;;;;;;;26.54;53.96;100692.44;691929;28;21537;-66
2022/07/01 00:15:15;;;;;;;1024.47;957.70;;;;;;;26.56;53.63;100691.03;692109;28;22398;-66
2022/07/01 00:15:37;;;;;;;1027.03;960.13;;;;;;;26.55;53.50;100688.53;691450;28;15737;-66
2022/07/01 00:15:58;;;;;;;1018.83;952.22;;;;;;;26.53;53.76;100691.59;691249;28;44819;-66
2022/07/01 00:16:19;;;;;;;1015.60;949.38;;;;;;;26.52;53.46;100689.97;690715;28;23304;-66
2022/07/01 00:16:41;;;;;;;1007.08;942.13;;;;;;;26.49;53.69;100681.38;693458;28;23486;-66
2022/07/01 00:17:02;;;;;;;1023.05;955.85;;;;;;;26.48;53.97;100688.88;693103;28;46353;-66
2022/07/01 00:17:24;;;;;;;1027.03;959.88;;;;;;;26.52;54.07;100686.34;694247;28;22398;-66
2022/07/01 00:17:48;;;;;;;699.03;653.72;;;;;;;26.53;53.54;100688.84;693492;28;45234;-66
2022/07/01 00:18:12;;;;;;;97.10;91.95;;;;;;;26.55;53.74;100686.63;689733;28;138149;-67
2022/07/01 00:18:33;;;;;;;86.93;82.03;;;;;;;26.53;53.98;100680.53;693308;28;44379;-67
2022/07/01 00:18:56;;;;;;;67.10;63.22;;;;;;;26.51;53.86;100690.25;694122;28;23329;-67
2022/07/01 00:19:17;;;;;;;91.57;85.97;;;;;;;26.52;53.55;100684.44;693134;28;47312;-67
2022/07/01 00:19:38;;;;;;;0.35;0.35;;;;;;;26.53;53.68;100685.25;693358;28;36610;-67
2022/07/01 00:20:00;;;;;;;0.50;0.50;;;;;;;26.48;53.68;100686.09;693964;28;22438;-67
2022/07/01 00:20:23;;;;;;;22.80;21.40;;;;;;;26.49;54.00;100673.91;695392;28;23384;-67
2022/07/01 00:20:44;;;;;;;8.20;7.77;;;;;;;26.53;54.02;100675.00;691517;28;84916;-66
2022/07/01 00:21:06;;;;;;;0.20;0.20;;;;;;;26.55;53.32;100686.63;693831;28;48734;-66
2022/07/01 00:21:27;;;;;;;0.30;0.30;;;;;;;26.53;53.96;100676.94;693103;28;21312;-66
2022/07/01 00:21:49;;;;;;;0.40;0.40;;;;;;;26.52;53.51;100683.56;695016;28;1966;-66
2022/07/01 00:22:10;;;;;;;0.50;0.50;;;;;;;26.51;53.55;100677.22;694435;28;46367;-66
2022/07/01 00:22:32;;;;;;;177.93;167.95;;;;;;;26.48;53.74;100680.56;694406;28;22424;-67
2022/07/01 00:22:54;;;;;;;763.28;718.40;;;;;;;26.48;53.88;100677.78;694501;28;46291;-66
2022/07/01 00:23:16;;;;;;;972.88;911.85;;;;;;;26.50;54.19;100680.28;692932;28;47103;-66
2022/07/01 00:23:42;;;;;;;954.22;891.67;;;;;;;26.52;53.93;100676.13;693022;28;60150;-66
2022/07/01 00:24:04;;;;;;;958.47;896.50;;;;;;;26.54;53.95;100684.16;697104;28;2890;-67
2022/07/01 00:24:27;;;;;;;1017.63;951.22;;;;;;;26.52;53.61;100676.13;696097;28;44363;-67
2022/07/01 00:24:48;;;;;;;1020.63;957.33;;;;;;;26.48;54.01;100668.66;695990;28;45209;-67
2022/07/01 00:25:09;;;;;;;1030.75;968.38;;;;;;;26.49;53.76;100682.22;695825;28;46300;-68
2022/07/01 00:25:30;;;;;;;1038.10;974.85;;;;;;;26.49;53.67;100682.22;696688;28;23503;-66
2022/07/01 00:25:53;;;;;;;1024.30;960.97;;;;;;;26.50;54.23;100672.78;696470;28;21549;-66
2022/07/01 00:26:14;;;;;;;1028.72;964.15;;;;;;;26.53;53.87;100685.25;693447;28;47081;-67
2022/07/01 00:26:35;;;;;;;1025.25;960.10;;;;;;;26.54;54.07;100679.41;694657;28;22364;-67
2022/07/01 00:26:58;;;;;;;1025.70;960.42;;;;;;;26.56;53.64;100684.69;693049;28;47866;-66
2022/07/01 00:27:19;;;;;;;1004.38;939.47;;;;;;;26.57;53.78;100676.09;693254;28;46143;-66
2022/07/01 00:27:41;;;;;;;959.72;897.47;;;;;;;26.58;53.42;100680.53;693829;28;22453;-66
2022/07/01 00:28:02;;;;;;;565.15;529.55;;;;;;;26.50;53.67;100670.03;692478;28;43518;-66
2022/07/01 00:28:25;;;;;;;1007.22;943.70;;;;;;;26.52;53.57;100675.28;693837;28;22179;-67
2022/07/01 00:28:46;;;;;;;770.90;725.42;;;;;;;26.51;53.76;100679.19;692153;28;70181;-66
2022/07/01 00:29:12;;;;;;;743.67;703.17;;;;;;;26.47;54.01;100669.78;692579;28;60619;-66
2022/07/01 00:29:34;;;;;;;996.50;937.78;;;;;;;26.44;54.12;100669.25;693890;28;21539;-67
2022/07/01 00:29:56;;;;;;;869.50;819.08;;;;;;;26.50;53.91;100680.28;693456;28;45867;-66
2022/07/01 00:30:17;;;;;;;955.47;899.15;;;;;;;26.49;53.98;100670.31;693264;28;45252;-66
2022/07/01 00:30:38;;;;;;;1029.18;965.42;;;;;;;26.46;53.82;100668.09;694551;28;9200;-66
2022/07/01 00:31:00;;;;;;;1031.15;967.03;;;;;;;26.47;54.37;100669.78;696280;28;21466;-67
2022/07/01 00:31:22;;;;;;;1027.38;962.70;;;;;;;26.47;54.18;100673.34;694417;28;44380;-67
2022/07/01 00:31:43;;;;;;;1005.85;940.50;;;;;;;26.48;54.25;100669.47;693542;28;45259;-67
2022/07/01 00:32:05;;;;;;;978.15;912.95;;;;;;;26.46;53.99;100670.88;695228;28;22380;-66
2022/07/01 00:32:26;;;;;;;996.65;930.75;;;;;;;26.49;53.76;100675.84;694905;28;45255;-66
2022/07/01 00:32:48;;;;;;;1040.32;973.60;;;;;;;26.49;54.17;100671.16;694706;28;21526;-67
2022/07/01 00:33:10;;;;;;;1045.10;979.08;;;;;;;26.49;54.21;100673.91;693947;28;46357;-67
2022/07/01 00:33:31;;;;;;;996.58;931.67;;;;;;;26.47;54.38;100669.78;695653;28;874;-66
2022/07/01 00:33:52;;;;;;;234.13;218.70;;;;;;;26.49;54.28;100671.16;693463;28;44381;-66
2022/07/01 00:34:14;;;;;;;395.92;370.77;;;;;;;26.51;53.99;100668.09;694144;28;23724;-67
2022/07/01 00:34:36;;;;;;;1028.25;962.38;;;;;;;26.49;54.12;100667.53;693367;28;23490;-66
2022/07/01 00:34:57;;;;;;;1026.10;960.72;;;;;;;26.45;54.07;100664.53;693374;28;45263;-66
2022/07/01 00:35:22;;;;;;;1037.35;971.33;;;;;;;26.46;54.26;100673.63;694386;28;23537;-66
2022/07/01 00:35:43;;;;;;;1001.42;937.63;;;;;;;26.46;53.85;100665.34;691366;28;113414;-67
2022/07/01 00:36:06;;;;;;;1021.33;955.00;;;;;;;26.43;54.50;100675.88;693979;28;23550;-67
2022/07/01 00:36:27;;;;;;;1003.97;938.38;;;;;;;26.41;54.04;100666.19;691755;28;69431;-67
2022/07/01 00:36:48;;;;;;;996.35;930.90;;;;;;;26.40;54.43;100664.56;694058;28;23305;-67
2022/07/01 00:37:09;;;;;;;964.88;900.33;;;;;;;26.41;54.41;100667.03;693703;28;21525;-66
2022/07/01 00:37:32;;;;;;;312.73;291.77;;;;;;;26.40;54.03;100662.59;693056;28;44372;-67
2022/07/01 00:37:53;;;;;;;0.50;0.50;;;;;;;26.44;54.17;100677.53;692811;28;69415;-66
2022/07/01 00:38:14;;;;;;;11.45;10.75;;;;;;;26.42;54.52;100671.44;694246;28;22422;-67
2022/07/01 00:38:37;;;;;;;11.30;10.60;;;;;;;26.42;54.45;100670.63;694313;28;22375;-66
2022/07/01 00:38:58;;;;;;;0.40;0.40;;;;;;;26.43;54.42;100666.75;693465;28;45498;-67
2022/07/01 00:39:20;;;;;;;0.30;0.30;;;;;;;26.44;54.18;100668.38;693456;28;44412;-66
2022/07/01 00:39:41;;;;;;;0.40;0.40;;;;;;;26.41;54.35;100668.97;693102;28;45061;-66
2022/07/01 00:40:04;;;;;;;0.43;0.43;;;;;;;26.47;54.51;100665.06;694013;28;23480;-67
2022/07/01 00:40:25;;;;;;;0.40;0.40;;;;;;;26.48;53.93;100669.47;695200;28;45288;-66
2022/07/01 00:40:51;;;;;;;0.30;0.30;;;;;;;26.50;54.12;100671.97;694507;28;22385;-66
2022/07/01 00:41:13;;;;;;;0.40;0.40;;;;;;;26.47;54.15;100672.53;689596;28;136400;-66
2022/07/01 00:41:35;;;;;;;8.60;8.10;;;;;;;26.46;53.95;100671.72;692670;28;47415;-66
2022/07/01 00:41:59;;;;;;;1.58;1.50;;;;;;;26.45;54.46;100670.06;694249;28;23004;-66
2022/07/01 00:42:22;;;;;;;0.30;0.30;;;;;;;26.45;54.29;100670.06;690801;28;115178;-66
2022/07/01 00:42:43;;;;;;;0.35;0.35;;;;;;;26.45;54.57;100670.06;693362;28;46307;-67
2022/07/01 00:43:05;;;;;;;0.40;0.40;;;;;;;26.43;54.70;100672.28;693951;28;46534;-66
2022/07/01 00:43:26;;;;;;;0.40;0.40;;;;;;;26.42;54.59;100665.91;694169;28;21536;-67
2022/07/01 00:43:48;;;;;;;0.40;0.40;;;;;;;26.46;54.46;100668.94;694276;28;22376;-67
2022/07/01 00:44:16;;;;;;;0.30;0.30;;;;;;;26.44;54.66;100666.47;693223;28;46347;-67
2022/07/01 00:44:37;;;;;;;0.47;0.47;;;;;;;26.44;54.51;100668.38;689987;28;137722;-66
2022/07/01 00:45:00;;;;;;;0.57;0.57;;;;;;;26.38;54.33;100661.22;694442;28;22340;-66
2022/07/01 00:45:23;;;;;;;0.70;0.70;;;;;;;26.42;54.82;100668.69;693445;28;70217;-67
2022/07/01 00:45:45;;;;;;;0.50;0.50;;;;;;;26.41;54.19;100667.03;692880;28;70013;-66
2022/07/01 00:46:06;;;;;;;0.50;0.50;;;;;;;26.43;54.24;100666.75;693533;28;23714;-66
2022/07/01 00:46:27;;;;;;;0.60;0.60;;;;;;;26.43;54.72;100661.22;691667;28;44390;-66
2022/07/01 00:46:51;;;;;;;0.85;0.85;;;;;;;26.43;54.80;100664.00;693229;28;45202;-66
2022/07/01 00:47:13;;;;;;;1.40;1.40;;;;;;;26.44;54.36;100660.09;692475;28;61276;-66
2022/07/01 00:47:34;;;;;;;7.07;6.82;;;;;;;26.45;54.55;100658.97;693334;28;46363;-66
2022/07/01 00:47:56;;;;;;;43.65;41.70;;;;;;;26.45;54.64;100656.22;694613;28;21588;-66
2022/07/01 00:48:19;;;;;;;87.40;83.32;;;;;;;26.50;54.11;100660.91;693810;28;23483;-66
2022/07/01 00:48:41;;;;;;;197.63;188.15;;;;;;;26.47;53.97;100658.69;691851;28;92061;-66
2022/07/01 00:49:02;;;;;;;447.77;423.75;;;;;;;26.45;54.65;100658.97;694375;28;3733;-66
2022/07/01 00:49:24;;;;;;;907.67;851.90;;;;;;;26.44;54.38;100662.84;693245;28;45277;-66
2022/07/01 00:49:46;;;;;;;790.85;740.33;;;;;;;26.41;54.79;100655.97;694042;28;22423;-66
2022/07/01 00:50:09;;;;;;;958.72;900.28;;;;;;;26.39;54.83;100655.41;693553;28;44332;-66
2022/07/01 00:50:30;;;;;;;969.95;911.45;;;;;;;26.38;54.80;100664.84;693576;28;69411;-65
2022/07/01 00:50:52;;;;;;;793.40;741.83;;;;;;;26.38;54.66;100658.47;694551;28;21611;-66
2022/07/01 00:51:13;;;;;;;345.60;323.27;;;;;;;26.43;54.61;100662.03;692742;28;44413;-65
2022/07/01 00:51:36;;;;;;;959.60;897.00;;;;;;;26.40;54.85;100667.31;693213;28;21514;-65
2022/07/01 00:51:57;;;;;;;1028.05;961.00;;;;;;;26.37;54.86;100663.16;692866;28;69348;-66
2022/07/01 00:52:19;;;;;;;1029.55;962.45;;;;;;;26.37;54.39;100663.16;694301;28;21549;-66
2022/07/01 00:52:44;;;;;;;1018.65;951.78;;;;;;;26.35;54.85;100667.31;691975;28;92461;-66
2022/07/01 00:53:06;;;;;;;976.33;911.22;;;;;;;26.34;54.86;100662.94;693713;28;45297;-66
2022/07/01 00:53:28;;;;;;;974.65;909.53;;;;;;;26.34;54.49;100665.69;692383;28;69393;-66
2022/07/01 00:53:50;;;;;;;1029.30;962.10;;;;;;;26.28;54.87;100661.28;694551;28;21488;-66
2022/07/01 00:54:12;;;;;;;1051.85;983.80;;;;;;;26.28;55.09;100670.41;692478;28;69304;-66
2022/07/01 00:54:36;;;;;;;1034.97;967.47;;;;;;;26.30;55.05;100662.69;693301;28;45353;-66
2022/07/01 00:54:58;;;;;;;1034.50;967.05;;;;;;;26.29;55.04;100672.09;691628;28;91180;-65
2022/07/01 00:55:19;;;;;;;449.77;420.45;;;;;;;26.29;54.78;100663.78;693068;28;46347;-66
2022/07/01 00:55:40;;;;;;;0.35;0.35;;;;;;;26.29;54.79;100668.50;693994;28;23379;-66
2022/07/01 00:56:02;;;;;;;305.63;286.48;;;;;;;26.22;54.75;100654.94;693360;28;45278;-66
2022/07/01 00:56:24;;;;;;;999.03;934.17;;;;;;;26.21;54.74;100656.88;692918;28;23472;-65
2022/07/01 00:56:46;;;;;;;1033.82;966.55;;;;;;;26.28;54.83;100659.34;692844;28;46933;-66
2022/07/01 00:57:11;;;;;;;1037.80;970.20;;;;;;;26.24;55.33;100667.41;693085;28;36414;-66
2022/07/01 00:57:34;;;;;;;1036.43;968.97;;;;;;;26.28;55.18;100664.88;694587;28;1663;-66
2022/07/01 00:57:56;;;;;;;1022.22;955.22;;;;;;;26.31;54.61;100669.03;695096;28;1690;-66
2022/07/01 00:58:18;;;;;;;1029.70;962.47;;;;;;;26.25;54.74;100671.84;692719;28;68311;-66
2022/07/01 00:58:39;;;;;;;1022.90;955.95;;;;;;;26.21;55.14;100662.44;693894;28;23439;-66
2022/07/01 00:59:01;;;;;;;1020.95;954.15;;;;;;;26.23;55.38;100665.72;693990;28;23448;-66
2022/07/01 00:59:22;;;;;;;1029.67;962.53;;;;;;;26.22;55.42;100661.31;693630;28;46268;-66
2022/07/01 00:59:45;;;;;;;1031.53;964.22;;;;;;;26.22;54.94;100669.63;694089;28;46364;-66
2022/07/01 01:00:09;;;;;;;1010.50;943.83;;;;;;;26.20;55.58;100665.47;692529;28;57754;-65
2022/07/01 01:00:30;;;;;;;1020.87;953.83;;;;;;;26.22;55.07;100669.63;692940;28;93144;-65
2022/07/01 01:00:52;;;;;;;1035.75;968.25;;;;;;;26.23;55.32;100662.97;693644;28;46428;-66
2022/07/01 01:01:14;;;;;;;1040.97;973.28;;;;;;;26.21;55.23;100667.16;695267;28;13060;-65
2022/07/01 01:01:35;;;;;;;946.70;884.70;;;;;;;26.22;55.15;100660.47;692602;28;45384;-66
2022/07/01 01:01:56;;;;;;;933.75;872.45;;;;;;;26.23;55.02;100659.38;694694;28;23435;-66
2022/07/01 01:02:17;;;;;;;1021.80;955.05;;;;;;;26.21;55.28;100661.63;693784;28;23424;-66
2022/07/01 01:02:39;;;;;;;1032.53;965.17;;;;;;;26.18;55.17;100653.88;693800;28;22456;-66
2022/07/01 01:03:01;;;;;;;986.97;923.30;;;;;;;26.20;55.17;100663.53;693324;28;44241;-66
2022/07/01 01:03:22;;;;;;;982.50;920.78;;;;;;;26.21;55.28;100664.38;692702;28;58286;-66
2022/07/01 01:03:44;;;;;;;1032.70;965.85;;;;;;;26.20;55.01;100658.00;693850;28;22384;-66
2022/07/01 01:04:06;;;;;;;1035.15;967.63;;;;;;;26.22;55.14;100660.47;694043;28;22366;-66
2022/07/01 01:04:27;;;;;;;1033.10;965.80;;;;;;;26.22;55.12;100660.47;692979;28;47108;-66
2022/07/01 01:04:48;;;;;;;366.98;342.73;;;;;;;26.22;55.33;100666.88;693802;28;22309;-66
2022/07/01 01:05:11;;;;;;;0.40;0.40;;;;;;;26.23;55.11;100659.38;694089;28;23568;-66
2022/07/01 01:05:32;;;;;;;0.30;0.30;;;;;;;26.21;54.92;100662.44;692224;28;69449;-66
2022/07/01 01:05:54;;;;;;;0.35;0.35;;;;;;;26.21;55.12;100659.66;694669;28;22114;-66
2022/07/01 01:06:16;;;;;;;0.40;0.40;;;;;;;26.21;55.20;100661.63;692139;28;69518;-66
2022/07/01 01:06:37;;;;;;;0.30;0.30;;;;;;;26.19;55.12;100661.91;692687;28;42435;-66
2022/07/01 01:07:01;;;;;;;0.50;0.50;;;;;;;26.23;55.09;100656.59;693950;28;16621;-66
2022/07/01 01:07:22;;;;;;;0.60;0.60;;;;;;;26.23;55.49;100654.66;691473;28;91942;-66
2022/07/01 01:07:44;;;;;;;0.50;0.50;;;;;;;26.25;54.90;100663.53;694125;28;23475;-66
2022/07/01 01:08:10;;;;;;;0.50;0.50;;;;;;;26.25;54.97;100658.00;692907;28;43046;-66
2022/07/01 01:08:32;;;;;;;0.50;0.50;;;;;;;26.25;54.98;100659.91;691050;28;138172;-66
2022/07/01 01:08:54;;;;;;;0.70;0.70;;;;;;;26.22;55.47;100657.72;693208;28;45414;-67
2022/07/01 01:09:16;;;;;;;0.40;0.40;;;;;;;26.20;55.10;100658.00;693153;28;44235;-66
2022/07/01 01:09:37;;;;;;;0.65;0.65;;;;;;;26.17;55.63;100653.03;694094;28;21352;-68
2022/07/01 01:10:00;;;;;;;0.80;0.80;;;;;;;26.18;55.21;100670.47;693256;28;46667;-66
2022/07/01 01:10:23;;;;;;;0.70;0.70;;;;;;;26.20;55.21;100663.53;692444;28;69458;-65
2022/07/01 01:10:45;;;;;;;0.60;0.60;;;;;;;26.23;55.14;100662.97;692951;28;69410;-65
2022/07/01 01:11:06;;;;;;;0.80;0.80;;;;;;;26.22;55.35;100657.72;693795;28;21506;-66
2022/07/01 01:11:28;;;;;;;0.60;0.60;;;;;;;26.21;55.65;100665.19;692717;28;22374;-67
2022/07/01 01:11:51;;;;;;;0.60;0.60;;;;;;;26.15;55.56;100654.44;693588;28;46446;-67
2022/07/01 01:12:12;;;;;;;0.73;0.73;;;;;;;26.17;55.78;100664.09;693192;28;50462;-66
2022/07/01 01:12:33;;;;;;;0.70;0.70;;;;;;;26.17;55.80;100669.63;694133;28;22408;-65
2022/07/01 01:12:57;;;;;;;1.02;1.02;;;;;;;26.15;55.61;100659.97;693290;28;44409;-65
2022/07/01 01:13:18;;;;;;;0.57;0.57;;;;;;;26.16;55.77;100667.16;692699;28;69421;-66
2022/07/01 01:13:39;;;;;;;0.60;0.60;;;;;;;26.14;55.86;100669.38;694158;28;22645;-65
2022/07/01 01:14:00;;;;;;;0.60;0.60;;;;;;;26.08;55.86;100669.41;694279;28;21544;-65
2022/07/01 01:14:21;;;;;;;0.50;0.50;;;;;;;26.07;55.45;100653.09;694880;28;22502;-66
2022/07/01 01:14:45;;;;;;;0.70;0.70;;;;;;;26.13;55.46;100667.72;693371;28;22391;-66
2022/07/01 01:15:07;;;;;;;0.73;0.73;;;;;;;26.11;55.79;100673.53;691885;28;90485;-66
2022/07/01 01:15:29;;;;;;;1.02;1.02;;;;;;;26.11;55.97;100665.22;692446;28;69411;-66
2022/07/01 01:15:50;;;;;;;29.83;27.92;;;;;;;26.11;56.02;100667.19;693731;28;45320;-66
2022/07/01 01:16:20;;;;;;;39.72;37.05;;;;;;;26.06;56.21;100665.25;693637;28;22407;-66
2022/07/01 01:16:41;;;;;;;0.40;0.40;;;;;;;26.05;55.65;100674.66;688659;28;158384;-66
2022/07/01 01:17:02;;;;;;;0.40;0.40;;;;;;;26.05;55.65;100666.34;693666;28;23469;-66
2022/07/01 01:17:25;;;;;;;0.40;0.40;;;;;;;26.04;55.73;100671.06;694259;28;45334;-66
2022/07/01 01:17:46;;;;;;;0.50;0.50;;;;;;;26.07;56.03;100666.94;693314;28;44357;-65
2022/07/01 01:18:07;;;;;;;0.50;0.50;;;;;;;26.06;56.17;100674.38;694034;28;45062;-65
2022/07/01 01:18:29;;;;;;;0.40;0.40;;;;;;;26.05;56.04;100674.66;695664;28;22414;-66
2022/07/01 01:18:51;;;;;;;0.50;0.50;;;;;;;26.04;56.08;100673.03;694402;28;23275;-66
2022/07/01 01:19:12;;;;;;;0.45;0.45;;;;;;;26.05;56.08;100671.88;693704;28;44447;-66
2022/07/01 01:19:33;;;;;;;0.50;0.50;;;;;;;26.04;56.18;100673.84;694710;28;17645;-66
2022/07/01 01:19:54;;;;;;;0.50;0.50;;;;;;;26.06;55.97;100674.38;695715;28;23407;-66
2022/07/01 01:20:18;;;;;;;0.38;0.38;;;;;;;26.05;55.80;100661.66;694275;28;22399;-67
2022/07/01 01:20:41;;;;;;;0.50;0.50;;;;;;;26.07;55.76;100664.97;691804;28;92272;-66
2022/07/01 01:21:02;;;;;;;0.60;0.60;;;;;;;26.06;55.60;100668.03;692244;28;69496;-66
2022/07/01 01:21:24;;;;;;;0.50;0.50;;;;;;;26.05;55.88;100666.34;693076;28;23834;-67
2022/07/01 01:21:45;;;;;;;0.50;0.50;;;;;;;26.04;56.02;100657.25;693225;28;46457;-66
2022/07/01 01:22:07;;;;;;;0.50;0.50;;;;;;;26.04;55.86;100662.78;694199;28;22390;-66
2022/07/01 01:22:28;;;;;;;0.50;0.50;;;;;;;26.02;55.87;100667.78;693913;28;22803;-67
2022/07/01 01:22:49;;;;;;;87.63;83.03;;;;;;;26.03;56.10;100658.34;693027;28;46296;-67
2022/07/01 01:23:11;;;;;;;43.00;40.65;;;;;;;26.05;55.86;100660.81;693587;28;38348;-66
2022/07/01 01:23:33;;;;;;;0.50;0.50;;;;;;;26.03;55.68;100661.09;693574;28;46316;-66
2022/07/01 01:23:54;;;;;;;0.50;0.50;;;;;;;26.07;56.02;100658.63;694122;28;21551;-66
2022/07/01 01:24:16;;;;;;;0.45;0.45;;;;;;;26.05;55.65;100661.66;694022;28;23423;-66
2022/07/01 01:24:37;;;;;;;0.45;0.45;;;;;;;26.07;55.62;100655.84;691987;28;63635;-66
2022/07/01 01:24:58;;;;;;;0.30;0.30;;;;;;;26.09;55.98;100656.38;693416;28;45100;-66
2022/07/01 01:25:20;;;;;;;0.30;0.30;;;;;;;26.07;56.16;100659.44;694061;28;17091;-67
2022/07/01 01:25:41;;;;;;;0.20;0.20;;;;;;;26.04;56.04;100659.19;693908;28;23457;-66
2022/07/01 01:26:03;;;;;;;0.30;0.30;;;;;;;26.05;56.10;100655.28;694030;28;22405;-66
2022/07/01 01:26:25;;;;;;;0.30;0.30;;;;;;;26.04;56.26;100654.47;691286;28;68358;-67
2022/07/01 01:26:46;;;;;;;0.30;0.30;;;;;;;26.07;56.16;100662.22;694381;28;21561;-66
2022/07/01 01:27:07;;;;;;;0.50;0.50;;;;;;;26.04;55.72;100656.41;693623;28;22381;-67
2022/07/01 01:27:30;;;;;;;0.30;0.30;;;;;;;26.06;55.62;100656.97;694260;28;22410;-67
2022/07/01 01:27:51;;;;;;;0.30;0.30;;;;;;;26.07;55.59;100661.38;691881;28;69398;-66
2022/07/01 01:28:12;;;;;;;0.45;0.45;;;;;;;26.03;55.63;100654.75;695086;28;21403;-67
2022/07/01 01:28:33;;;;;;;0.38;0.38;;;;;;;26.02;56.17;100662.25;693212;28;22415;-66
2022/07/01 01:28:56;;;;;;;0.30;0.30;;;;;;;26.00;56.37;100664.47;691846;28;21754;-66
2022/07/01 01:29:17;;;;;;;0.40;0.40;;;;;;;26.01;56.28;100652.28;690028;28;69521;-65
2022/07/01 01:29:39;;;;;;;0.40;0.40;;;;;;;26.03;56.37;100660.28;692342;28;22405;-65
2022/07/01 01:30:00;;;;;;;0.30;0.30;;;;;;;26.01;56.26;100656.97;692477;28;23530;-65
2022/07/01 01:30:21;;;;;;;0.40;0.40;;;;;;;26.02;55.97;100653.09;694548;28;887;-65
2022/07/01 01:30:43;;;;;;;0.40;0.40;;;;;;;26.01;56.07;100655.03;693150;28;46429;-66
2022/07/01 01:31:05;;;;;;;0.50;0.50;;;;;;;26.04;56.37;100659.19;694123;28;45090;-65
2022/07/01 01:31:30;;;;;;;0.50;0.50;;;;;;;26.05;55.77;100655.28;694884;28;4195;-66
2022/07/01 01:31:52;;;;;;;0.50;0.50;;;;;;;26.07;55.90;100656.66;691999;28;115152;-66
2022/07/01 01:32:13;;;;;;;0.40;0.40;;;;;;;26.06;56.16;100654.19;694275;28;46590;-65
2022/07/01 01:32:35;;;;;;;0.43;0.43;;;;;;;26.08;55.86;100657.50;695339;28;21560;-66
2022/07/01 01:32:57;;;;;;;0.60;0.60;;;;;;;26.08;56.19;100652.81;693974;28;46351;-65
2022/07/01 01:33:18;;;;;;;0.50;0.50;;;;;;;26.10;55.94;100648.91;694369;28;23495;-65
2022/07/01 01:33:40;;;;;;;0.60;0.60;;;;;;;26.09;55.82;100653.63;694051;28;21941;-65
2022/07/01 01:34:02;;;;;;;0.40;0.40;;;;;;;26.09;56.17;100650.84;694328;28;46177;-65
2022/07/01 01:34:23;;;;;;;0.50;0.50;;;;;;;26.06;55.71;100654.19;695581;28;10337;-65
2022/07/01 01:34:45;;;;;;;0.55;0.55;;;;;;;26.04;55.79;100650.88;694055;28;25113;-65
2022/07/01 01:35:08;;;;;;;0.63;0.63;;;;;;;26.04;55.97;100646.16;694074;28;44423;-65
2022/07/01 01:35:29;;;;;;;0.50;0.50;;;;;;;26.04;56.28;100651.69;693007;28;69516;-66
2022/07/01 01:35:52;;;;;;;0.40;0.40;;;;;;;26.04;56.29;100648.94;694047;28;21515;-66
2022/07/01 01:36:13;;;;;;;0.70;0.70;;;;;;;26.03;56.33;100647.28;691834;28;70349;-66
2022/07/01 01:36:35;;;;;;;0.57;0.57;;;;;;;26.04;56.28;100642.59;694126;28;22476;-66
2022/07/01 01:36:57;;;;;;;0.47;0.47;;;;;;;26.04;55.82;100653.66;693506;28;46388;-65
2022/07/01 01:37:18;;;;;;;0.60;0.60;;;;;;;26.05;56.26;100649.75;694924;28;23446;-66
2022/07/01 01:37:39;;;;;;;0.40;0.40;;;;;;;26.06;56.26;100649.47;694196;28;44424;-66
2022/07/01 01:38:00;;;;;;;0.50;0.50;;;;;;;26.10;55.69;100651.69;694805;28;22387;-66
2022/07/01 01:38:21;;;;;;;0.50;0.50;;;;;;;26.06;56.17;100649.47;694763;28;23434;-66
2022/07/01 01:38:44;;;;;;;0.60;0.60;;;;;;;26.05;55.79;100650.59;694222;28;23482;-66
2022/07/01 01:39:08;;;;;;;0.52;0.52;;;;;;;26.03;56.03;100649.22;694715;28;45244;-66
2022/07/01 01:39:29;;;;;;;0.45;0.45;;;;;;;26.07;55.75;100650.31;690949;28;91612;-66
2022/07/01 01:39:50;;;;;;;0.52;0.52;;;;;;;26.05;56.22;100646.97;694131;28;21527;-66
2022/07/01 01:40:14;;;;;;;0.40;0.40;;;;;;;26.03;56.36;100646.44;693124;28;44469;-66
2022/07/01 01:40:35;;;;;;;0.60;0.60;;;;;;;26.02;56.18;100653.09;691371;28;93203;-66
2022/07/01 01:40:57;;;;;;;0.70;0.70;;;;;;;26.05;55.97;100649.75;693298;28;46290;-66
2022/07/01 01:41:18;;;;;;;0.60;0.60;;;;;;;26.07;56.25;100656.66;692991;28;23427;-66